createdAt,value
2019-01-11T00:01:49.823Z,4.98
2019-01-11T00:04:19.335Z,4.95
2019-01-11T00:06:48.824Z,4.95
2019-01-11T00:09:19.122Z,5.00
2019-01-11T00:11:48.706Z,5.60
2019-01-11T00:14:18.232Z,5.37
2019-01-11T00:16:47.726Z,5.17
2019-01-11T00:19:17.231Z,5.20
2019-01-11T00:21:46.739Z,5.09
2019-01-11T00:24:16.799Z,5.00
2019-01-11T00:26:46.302Z,4.70
2019-01-11T00:29:15.831Z,4.99
2019-01-11T00:31:45.338Z,4.99
2019-01-11T00:34:14.851Z,5.03
2019-01-11T00:36:44.355Z,5.06
2019-01-11T00:39:13.864Z,4.94
2019-01-11T00:41:43.347Z,4.95
2019-01-11T00:44:13.045Z,4.98
2019-01-11T00:46:42.572Z,5.08
2019-01-11T00:49:13.630Z,4.84
2019-01-11T00:51:43.366Z,4.90
2019-01-11T00:54:12.870Z,4.85
2019-01-11T00:56:42.375Z,4.89
2019-01-11T00:59:11.868Z,4.83
2019-01-11T01:01:41.462Z,4.77
2019-01-11T01:04:10.986Z,4.71
2019-01-11T01:06:40.494Z,4.74
2019-01-11T01:09:11.056Z,4.79
2019-01-11T01:11:40.601Z,4.61
2019-01-11T01:14:10.197Z,4.78
2019-01-11T01:16:39.706Z,4.56
2019-01-11T01:19:10.178Z,4.69
2019-01-11T01:21:39.752Z,4.63
2019-01-11T01:24:09.724Z,4.63
2019-01-11T01:26:39.212Z,4.45
2019-01-11T01:29:08.728Z,4.71
2019-01-11T01:31:38.225Z,4.70
2019-01-11T01:34:07.741Z,4.75
2019-01-11T01:36:37.254Z,4.77
2019-01-11T01:39:08.482Z,4.77
2019-01-11T01:41:38.059Z,4.82
2019-01-11T01:44:07.563Z,4.86
2019-01-11T01:46:37.058Z,4.92
2019-01-11T01:49:06.631Z,4.88
2019-01-11T01:51:36.119Z,4.87
2019-01-11T01:54:05.809Z,4.89
2019-01-11T01:56:35.298Z,4.90
2019-01-11T01:59:04.961Z,4.88
2019-01-11T02:01:34.440Z,4.77
2019-01-11T02:04:04.056Z,4.87
2019-01-11T02:06:33.634Z,4.85
2019-01-11T02:09:04.952Z,4.84
2019-01-11T02:11:34.466Z,4.87
2019-01-11T02:14:04.037Z,4.89
2019-01-11T02:16:33.552Z,4.89
2019-01-11T02:19:03.092Z,4.85
2019-01-11T02:21:32.579Z,5.01
2019-01-11T02:24:02.076Z,5.00
2019-01-11T02:26:31.558Z,5.15
2019-01-11T02:29:01.037Z,5.03
2019-01-11T02:31:30.535Z,4.98
2019-01-11T02:34:00.024Z,5.00
2019-01-11T02:36:29.601Z,5.02
2019-01-11T02:38:59.079Z,4.94
2019-01-11T02:41:28.650Z,5.00
2019-01-11T02:43:58.131Z,5.03
2019-01-11T02:46:27.644Z,5.15
2019-01-11T02:48:57.134Z,5.01
2019-01-11T02:51:26.638Z,5.01
2019-01-11T02:53:56.132Z,4.99
2019-01-11T02:56:25.665Z,5.02
2019-01-11T02:58:55.139Z,5.02
2019-01-11T03:01:24.631Z,5.05
2019-01-11T03:03:54.121Z,5.04
2019-01-11T03:06:23.643Z,5.10
2019-01-11T03:08:53.161Z,5.04
2019-01-11T03:11:23.642Z,4.99
2019-01-11T03:13:53.173Z,5.02
2019-01-11T03:16:22.645Z,4.95
2019-01-11T03:18:52.181Z,4.93
2019-01-11T03:21:21.674Z,5.01
2019-01-11T03:23:51.169Z,5.10
2019-01-11T03:26:20.679Z,4.96
2019-01-11T03:28:50.186Z,5.00
2019-01-11T03:31:38.295Z,4.96
2019-01-11T03:34:07.778Z,5.01
2019-01-11T03:36:37.295Z,5.00
2019-01-11T03:39:07.930Z,5.04
2019-01-11T03:41:50.306Z,5.03
2019-01-11T03:44:20.026Z,5.00
2019-01-11T03:46:49.526Z,4.96
2019-01-11T03:49:19.026Z,5.02
2019-01-11T03:51:48.541Z,5.07
2019-01-11T03:54:18.409Z,5.02
2019-01-11T03:56:48.015Z,5.01
2019-01-11T03:59:17.488Z,5.03
2019-01-11T04:01:46.993Z,5.03
2019-01-11T04:04:16.495Z,5.11
2019-01-11T04:06:45.995Z,5.00
2019-01-11T04:09:15.470Z,4.97
2019-01-11T04:11:45.061Z,4.99
2019-01-11T04:14:14.577Z,4.96
2019-01-11T04:16:44.102Z,4.93
2019-01-11T04:19:15.034Z,4.94
2019-01-11T04:22:03.390Z,4.86
2019-01-11T04:24:39.326Z,4.83
2019-01-11T04:27:08.827Z,4.91
2019-01-11T04:29:38.311Z,4.87
2019-01-11T04:32:07.813Z,4.86
2019-01-11T04:34:37.303Z,4.79
2019-01-11T04:37:06.791Z,4.95
2019-01-11T04:39:36.292Z,4.99
2019-01-11T04:42:05.811Z,5.06
2019-01-11T04:44:35.313Z,5.08
2019-01-11T04:47:04.968Z,5.13
2019-01-11T04:49:34.479Z,5.03
2019-01-11T04:52:04.054Z,5.02
2019-01-11T04:54:33.558Z,5.08
2019-01-11T04:57:03.061Z,5.15
2019-01-11T04:59:32.553Z,5.01
2019-01-11T05:02:02.050Z,4.99
2019-01-11T05:04:31.546Z,5.08
2019-01-11T05:07:01.050Z,5.10
2019-01-11T05:09:30.525Z,5.04
2019-01-11T05:12:00.138Z,4.96
2019-01-11T05:14:29.629Z,4.84
2019-01-11T05:16:59.119Z,4.97
2019-01-11T05:19:28.616Z,5.08
2019-01-11T05:21:58.099Z,5.00
2019-01-11T05:24:27.595Z,5.19
2019-01-11T05:26:57.094Z,5.14
2019-01-11T05:29:27.679Z,5.22
2019-01-11T05:31:57.257Z,5.25
2019-01-11T05:34:26.745Z,5.21
2019-01-11T05:36:56.231Z,5.11
2019-01-11T05:39:25.729Z,5.17
2019-01-11T05:41:55.209Z,5.25
2019-01-11T05:44:24.714Z,5.24
2019-01-11T05:46:54.208Z,5.25
2019-01-11T05:49:23.705Z,5.39
2019-01-11T05:51:53.206Z,5.28
2019-01-11T05:54:23.058Z,5.35
2019-01-11T05:56:52.548Z,5.34
2019-01-11T05:59:22.038Z,5.35
2019-01-11T06:01:51.515Z,5.29
2019-01-11T06:04:37.371Z,5.36
2019-01-11T06:07:41.306Z,5.38
2019-01-11T06:10:13.221Z,5.30
2019-01-11T06:12:42.697Z,5.22
2019-01-11T06:15:12.368Z,5.24
2019-01-11T06:17:41.856Z,5.16
2019-01-11T06:20:14.293Z,5.23
2019-01-11T06:22:43.849Z,5.23
2019-01-11T06:25:13.421Z,5.13
2019-01-11T06:27:42.893Z,5.17
2019-01-11T06:30:13.700Z,5.15
2019-01-11T06:32:43.252Z,5.11
2019-01-11T06:35:12.773Z,5.06
2019-01-11T06:37:42.291Z,5.15
2019-01-11T06:40:11.905Z,5.21
2019-01-11T06:42:41.381Z,5.27
2019-01-11T06:45:10.891Z,5.43
2019-01-11T06:47:40.665Z,5.51
2019-01-11T06:50:12.539Z,5.45
2019-01-11T06:52:42.017Z,5.57
2019-01-11T06:55:11.755Z,5.65
2019-01-11T06:57:41.243Z,5.51
2019-01-11T07:00:13.064Z,5.61
2019-01-11T07:02:42.547Z,5.66
2019-01-11T07:05:12.113Z,5.74
2019-01-11T07:07:41.605Z,5.80
2019-01-11T07:10:14.317Z,5.80
2019-01-11T07:12:43.812Z,5.91
2019-01-11T07:15:13.572Z,5.91
2019-01-11T07:17:43.134Z,5.92
2019-01-11T07:20:13.051Z,5.96
2019-01-11T07:22:42.617Z,5.85
2019-01-11T07:25:12.474Z,5.74
2019-01-11T07:27:46.001Z,5.82
2019-01-11T07:30:15.659Z,5.93
2019-01-11T07:32:45.413Z,6.06
2019-01-11T07:35:14.990Z,6.03
2019-01-11T07:37:44.550Z,6.06
2019-01-11T07:40:14.041Z,6.10
2019-01-11T07:42:43.530Z,6.07
2019-01-11T07:45:13.112Z,6.07
2019-01-11T07:47:43.573Z,5.98
2019-01-11T07:50:13.169Z,5.86
2019-01-11T07:52:42.647Z,5.84
2019-01-11T07:55:12.226Z,5.77
2019-01-11T07:57:41.717Z,5.78
2019-01-11T08:00:11.869Z,5.62
2019-01-11T08:02:41.710Z,5.64
2019-01-11T08:05:11.276Z,5.69
2019-01-11T08:07:40.850Z,5.79
2019-01-11T08:10:10.429Z,5.78
2019-01-11T08:12:39.952Z,5.78
2019-01-11T08:15:09.997Z,5.80
2019-01-11T08:17:39.518Z,5.69
2019-01-11T08:20:09.295Z,5.85
2019-01-11T08:22:42.255Z,5.82
2019-01-11T08:25:12.569Z,5.77
2019-01-11T08:27:42.181Z,5.90
2019-01-11T08:30:13.426Z,5.91
2019-01-11T08:32:42.998Z,5.91
2019-01-11T08:35:12.840Z,6.00
2019-01-11T08:37:42.412Z,5.90
2019-01-11T08:40:12.021Z,5.90
2019-01-11T08:42:41.527Z,5.93
2019-01-11T08:45:11.717Z,5.95
2019-01-11T08:47:41.493Z,5.98
2019-01-11T08:50:14.746Z,5.96
2019-01-11T08:52:44.315Z,5.96
2019-01-11T08:55:13.952Z,6.12
2019-01-11T08:57:43.466Z,6.14
2019-01-11T09:00:13.772Z,6.16
2019-01-11T09:02:43.316Z,6.16
2019-01-11T09:05:12.966Z,6.16
2019-01-11T09:07:43.010Z,6.27
2019-01-11T09:10:13.728Z,6.23
2019-01-11T09:12:44.081Z,6.26
2019-01-11T09:15:13.647Z,6.24
2019-01-11T09:17:57.937Z,6.26
2019-01-11T09:20:27.553Z,6.30
2019-01-11T09:22:57.047Z,6.23
2019-01-11T09:25:26.551Z,6.34
2019-01-11T09:27:56.056Z,6.43
2019-01-11T09:30:25.556Z,6.38
2019-01-11T09:32:55.056Z,6.43
2019-01-11T09:35:25.421Z,6.51
2019-01-11T09:37:54.959Z,6.44
2019-01-11T09:40:24.586Z,6.50
2019-01-11T09:42:54.092Z,6.54
2019-01-11T09:45:23.659Z,6.55
2019-01-11T09:47:53.231Z,6.58
2019-01-11T09:50:22.743Z,6.60
2019-01-11T09:52:52.344Z,6.64
2019-01-11T09:55:21.856Z,6.83
2019-01-11T09:57:52.151Z,6.99
2019-01-11T10:00:23.725Z,6.94
2019-01-11T10:03:01.156Z,7.11
2019-01-11T10:05:30.667Z,7.19
2019-01-11T10:08:02.022Z,7.25
2019-01-11T10:10:31.523Z,7.05
2019-01-11T10:13:01.053Z,7.34
2019-01-11T10:15:30.716Z,7.41
2019-01-11T10:18:00.609Z,7.35
2019-01-11T10:20:30.214Z,7.42
2019-01-11T10:22:59.776Z,7.32
2019-01-11T10:25:29.277Z,7.33
2019-01-11T10:27:58.775Z,7.49
2019-01-11T10:30:28.263Z,7.57
2019-01-11T10:32:57.779Z,7.59
2019-01-11T10:35:27.279Z,7.70
2019-01-11T10:37:56.788Z,7.80
2019-01-11T10:40:26.295Z,7.86
2019-01-11T10:42:55.865Z,7.87
2019-01-11T10:45:25.376Z,7.67
2019-01-11T10:47:54.959Z,7.63
2019-01-11T10:50:24.620Z,7.76
2019-01-11T10:52:54.197Z,7.79
2019-01-11T10:55:24.232Z,7.74
2019-01-11T10:57:53.761Z,7.67
2019-01-11T11:00:25.241Z,7.76
2019-01-11T11:02:55.568Z,7.76
2019-01-11T11:05:25.171Z,7.70
2019-01-11T11:07:54.743Z,7.56
2019-01-11T11:10:24.676Z,7.58
2019-01-11T11:12:54.179Z,7.81
2019-01-11T11:15:24.116Z,7.76
2019-01-11T11:17:53.665Z,7.62
2019-01-11T11:20:23.191Z,7.85
2019-01-11T11:22:53.616Z,7.96
2019-01-11T11:25:24.104Z,7.88
2019-01-11T11:27:53.611Z,7.98
2019-01-11T11:30:23.258Z,7.91
2019-01-11T11:32:58.058Z,8.04
2019-01-11T11:35:31.209Z,8.10
2019-01-11T11:38:00.730Z,7.96
2019-01-11T11:40:31.360Z,7.99
2019-01-11T11:43:00.876Z,8.01
2019-01-11T11:45:30.791Z,8.38
2019-01-11T11:48:00.296Z,8.36
2019-01-11T11:50:29.800Z,8.25
2019-01-11T11:52:59.568Z,8.43
2019-01-11T11:55:29.067Z,8.39
2019-01-11T11:57:58.549Z,8.24
2019-01-11T12:00:28.412Z,8.56
2019-01-11T12:02:57.932Z,8.34
2019-01-11T12:05:28.474Z,8.58
2019-01-11T12:07:58.046Z,8.62
2019-01-11T12:10:27.624Z,8.20
2019-01-11T12:12:57.123Z,8.40
2019-01-11T12:15:26.638Z,8.34
2019-01-11T12:17:56.125Z,8.31
2019-01-11T12:20:33.555Z,8.53
2019-01-11T12:23:03.161Z,8.52
2019-01-11T12:25:32.652Z,8.81
2019-01-11T12:28:02.144Z,8.86
2019-01-11T12:30:31.640Z,8.71
2019-01-11T12:33:01.124Z,8.79
2019-01-11T12:35:30.626Z,8.63
2019-01-11T12:38:00.239Z,8.87
2019-01-11T12:40:29.764Z,8.78
2019-01-11T12:42:59.239Z,8.94
2019-01-11T12:45:28.839Z,8.93
2019-01-11T12:47:58.315Z,9.14
2019-01-11T12:50:28.203Z,9.12
2019-01-11T12:52:57.686Z,9.31
2019-01-11T12:55:27.353Z,9.19
2019-01-11T12:57:56.873Z,9.20
2019-01-11T13:00:26.800Z,9.16
2019-01-11T13:02:56.305Z,9.20
2019-01-11T13:05:26.778Z,9.15
2019-01-11T13:07:56.272Z,9.30
2019-01-11T13:10:25.860Z,9.23
2019-01-11T13:12:55.379Z,9.26
2019-01-11T13:15:25.311Z,9.32
2019-01-11T13:17:54.913Z,9.44
2019-01-11T13:20:24.570Z,9.56
2019-01-11T13:22:54.158Z,9.55
2019-01-11T13:25:23.685Z,9.73
2019-01-11T13:27:53.224Z,9.59
2019-01-11T13:30:22.875Z,9.69
2019-01-11T13:32:52.476Z,9.70
2019-01-11T13:35:21.969Z,9.82
2019-01-11T13:37:51.469Z,9.75
2019-01-11T13:40:25.117Z,9.59
2019-01-11T13:42:54.970Z,9.82
2019-01-11T13:45:24.613Z,9.68
2019-01-11T13:47:54.178Z,9.85
2019-01-11T13:50:37.722Z,9.89
2019-01-11T13:53:09.265Z,9.69
2019-01-11T13:55:38.774Z,9.52
2019-01-11T13:58:08.373Z,9.53
2019-01-11T14:00:37.889Z,9.47
2019-01-11T14:03:07.771Z,9.66
2019-01-11T14:05:37.280Z,9.80
2019-01-11T14:08:06.796Z,9.96
2019-01-11T14:10:36.405Z,9.94
2019-01-11T14:13:05.933Z,9.96
2019-01-11T14:15:36.933Z,9.90
2019-01-11T14:18:07.631Z,10.20
2019-01-11T14:20:38.312Z,10.12
2019-01-11T14:23:08.009Z,10.03
2019-01-11T14:25:37.514Z,10.09
2019-01-11T14:28:07.094Z,10.11
2019-01-11T14:30:36.689Z,9.91
2019-01-11T14:33:06.470Z,10.00
2019-01-11T14:35:37.102Z,10.00
2019-01-11T14:38:06.819Z,10.00
2019-01-11T14:40:36.374Z,10.08
2019-01-11T14:43:05.967Z,9.89
2019-01-11T14:45:35.490Z,9.69
2019-01-11T14:48:05.568Z,9.91
2019-01-11T14:50:35.201Z,9.86
2019-01-11T14:53:04.839Z,9.84
2019-01-11T14:55:34.338Z,9.88
2019-01-11T14:58:04.314Z,10.30
2019-01-11T15:00:33.920Z,10.63
2019-01-11T15:03:03.453Z,10.53
2019-01-11T15:05:33.162Z,10.12
2019-01-11T15:08:02.693Z,10.18
2019-01-11T15:10:32.211Z,9.87
2019-01-11T15:13:01.785Z,9.97
2019-01-11T15:15:31.277Z,10.02
2019-01-11T15:18:00.858Z,10.24
2019-01-11T15:20:30.361Z,10.09
2019-01-11T15:22:59.884Z,10.00
2019-01-11T15:25:29.440Z,9.99
2019-01-11T15:27:58.940Z,9.78
2019-01-11T15:30:28.463Z,9.81
2019-01-11T15:32:57.966Z,9.87
2019-01-11T15:35:27.574Z,9.84
2019-01-11T15:37:58.085Z,9.64
2019-01-11T15:40:28.997Z,9.56
2019-01-11T15:42:58.473Z,9.52
2019-01-11T15:45:28.039Z,9.74
2019-01-11T15:47:59.597Z,9.59
2019-01-11T15:50:53.233Z,9.74
2019-01-11T15:53:22.753Z,9.80
2019-01-11T15:55:55.211Z,9.68
2019-01-11T15:58:24.706Z,9.69
2019-01-11T16:00:54.545Z,9.59
2019-01-11T16:03:24.152Z,9.80
2019-01-11T16:06:19.145Z,9.85
2019-01-11T16:09:21.250Z,9.85
2019-01-11T16:11:58.426Z,9.95
2019-01-11T16:14:46.949Z,10.02
2019-01-11T16:17:17.596Z,10.06
2019-01-11T16:19:48.142Z,10.11
2019-01-11T16:22:17.614Z,10.12
2019-01-11T16:24:47.108Z,10.14
2019-01-11T16:27:16.729Z,10.32
2019-01-11T16:29:46.243Z,10.40
2019-01-11T16:32:15.746Z,10.39
2019-01-11T16:34:45.251Z,10.21
2019-01-11T16:37:14.778Z,10.23
2019-01-11T16:39:44.431Z,10.02
2019-01-11T16:42:13.929Z,10.07
2019-01-11T16:44:43.433Z,10.12
2019-01-11T16:47:13.902Z,10.13
2019-01-11T16:49:43.402Z,10.22
2019-01-11T16:52:15.449Z,10.23
2019-01-11T16:54:44.218Z,10.06
2019-01-11T16:57:13.703Z,9.85
2019-01-11T16:59:43.285Z,9.88
2019-01-11T17:02:12.785Z,9.84
2019-01-11T17:04:42.303Z,9.93
2019-01-11T17:07:11.814Z,9.92
2019-01-11T17:09:41.312Z,9.55
2019-01-11T17:12:10.784Z,9.57
2019-01-11T17:14:40.533Z,9.54
2019-01-11T17:17:10.089Z,9.59
2019-01-11T17:19:39.635Z,9.58
2019-01-11T17:22:09.142Z,9.55
2019-01-11T17:24:39.658Z,9.63
2019-01-11T17:27:09.174Z,9.41
2019-01-11T17:29:38.664Z,9.56
2019-01-11T17:32:08.180Z,9.53
2019-01-11T17:34:37.642Z,9.48
2019-01-11T17:37:07.249Z,9.66
2019-01-11T17:39:36.725Z,9.62
2019-01-11T17:42:06.281Z,9.60
2019-01-11T17:44:35.760Z,9.66
2019-01-11T17:47:07.265Z,9.62
2019-01-11T17:49:36.741Z,9.79
2019-01-11T17:52:06.222Z,9.68
2019-01-11T17:54:35.719Z,9.65
2019-01-11T17:57:05.219Z,9.77
2019-01-11T17:59:34.693Z,9.81
2019-01-11T18:02:04.284Z,9.85
2019-01-11T18:04:33.785Z,9.88
2019-01-11T18:07:03.330Z,9.92
2019-01-11T18:09:32.814Z,9.99
2019-01-11T18:12:02.318Z,9.64
2019-01-11T18:14:31.945Z,9.52
2019-01-11T18:17:01.540Z,9.40
2019-01-11T18:19:31.111Z,9.54
2019-01-11T18:22:01.658Z,9.75
2019-01-11T18:24:31.163Z,9.65
2019-01-11T18:27:00.677Z,9.59
2019-01-11T18:29:30.270Z,9.52
2019-01-11T18:31:59.755Z,9.48
2019-01-11T18:34:29.227Z,9.48
2019-01-11T18:36:58.799Z,9.76
2019-01-11T18:39:28.391Z,9.55
2019-01-11T18:41:57.948Z,9.37
2019-01-11T18:44:27.430Z,9.38
2019-01-11T18:46:56.906Z,9.32
2019-01-11T18:49:27.428Z,9.53
2019-01-11T18:51:56.905Z,9.48
2019-01-11T18:54:26.409Z,9.55
2019-01-11T18:56:56.150Z,9.67
2019-01-11T18:59:25.681Z,9.65
2019-01-11T19:01:55.159Z,9.50
2019-01-11T19:04:24.666Z,9.61
2019-01-11T19:06:55.019Z,9.55
2019-01-11T19:09:24.625Z,9.27
2019-01-11T19:11:54.099Z,9.29
2019-01-11T19:14:23.623Z,9.38
2019-01-11T19:16:53.141Z,9.52
2019-01-11T19:19:22.700Z,9.57
2019-01-11T19:21:52.233Z,9.61
2019-01-11T19:24:21.761Z,9.76
2019-01-11T19:26:51.261Z,9.69
2019-01-11T19:29:20.791Z,9.63
2019-01-11T19:31:50.308Z,9.68
2019-01-11T19:34:19.866Z,9.64
2019-01-11T19:36:49.374Z,9.31
2019-01-11T19:39:18.890Z,9.34
2019-01-11T19:41:48.391Z,9.29
2019-01-11T19:44:17.985Z,9.28
2019-01-11T19:46:47.491Z,9.45
2019-01-11T19:49:17.016Z,9.58
2019-01-11T19:51:46.618Z,9.37
2019-01-11T19:54:16.197Z,9.36
2019-01-11T19:56:45.683Z,9.42
2019-01-11T19:59:15.325Z,9.33
2019-01-11T20:01:44.824Z,9.47
2019-01-11T20:04:15.182Z,9.42
2019-01-11T20:06:45.955Z,9.28
2019-01-11T20:09:15.607Z,9.49
2019-01-11T20:11:45.066Z,9.44
2019-01-11T20:14:15.523Z,9.07
2019-01-11T20:16:46.044Z,9.26
2019-01-11T20:19:15.595Z,9.39
2019-01-11T20:21:45.066Z,9.57
2019-01-11T20:24:14.566Z,9.40
2019-01-11T20:26:45.164Z,9.27
2019-01-11T20:29:14.659Z,9.38
2019-01-11T20:31:44.137Z,9.26
2019-01-11T20:34:13.645Z,9.23
2019-01-11T20:36:57.237Z,9.29
2019-01-11T20:39:26.719Z,9.20
2019-01-11T20:41:56.328Z,9.09
2019-01-11T20:44:25.847Z,9.24
2019-01-11T20:46:55.354Z,9.15
2019-01-11T20:49:24.845Z,9.24
2019-01-11T20:51:54.410Z,9.29
2019-01-11T20:54:24.296Z,9.25
2019-01-11T20:56:53.826Z,9.37
2019-01-11T20:59:23.334Z,9.40
2019-01-11T21:01:52.998Z,9.29
2019-01-11T21:04:22.608Z,9.30
2019-01-11T21:06:52.138Z,9.23
2019-01-11T21:09:21.653Z,9.37
2019-01-11T21:11:51.157Z,9.28
2019-01-11T21:14:20.673Z,9.39
2019-01-11T21:16:50.239Z,9.37
2019-01-11T21:19:19.732Z,9.23
2019-01-11T21:21:49.365Z,9.26
2019-01-11T21:24:18.873Z,9.36
2019-01-11T21:26:48.404Z,9.30
2019-01-11T21:29:17.975Z,9.43
2019-01-11T21:31:47.565Z,9.27
2019-01-11T21:34:17.085Z,9.25
2019-01-11T21:36:46.616Z,9.38
2019-01-11T21:39:16.113Z,9.37
2019-01-11T21:41:45.595Z,9.27
2019-01-11T21:44:15.132Z,9.37
2019-01-11T21:46:44.919Z,9.21
2019-01-11T21:49:14.447Z,8.83
2019-01-11T21:51:43.979Z,9.22
2019-01-11T21:54:13.554Z,9.30
2019-01-11T21:56:43.059Z,9.36
2019-01-11T21:59:12.635Z,9.06
2019-01-11T22:01:42.143Z,9.25
2019-01-11T22:04:11.626Z,9.23
2019-01-11T22:06:41.211Z,9.31
2019-01-11T22:09:10.728Z,9.27
2019-01-11T22:11:40.228Z,9.24
2019-01-11T22:14:09.783Z,9.15
2019-01-11T22:16:39.318Z,9.31
2019-01-11T22:19:08.909Z,9.17
2019-01-11T22:21:38.404Z,9.32
2019-01-11T22:24:08.026Z,9.20
2019-01-11T22:26:37.516Z,9.30
2019-01-11T22:29:08.084Z,9.27
2019-01-11T22:31:37.788Z,9.36
2019-01-11T22:34:07.268Z,9.31
2019-01-11T22:36:36.779Z,9.42
2019-01-11T22:39:08.265Z,9.46
2019-01-11T22:41:37.914Z,9.55
2019-01-11T22:44:07.448Z,9.56
2019-01-11T22:46:37.437Z,9.54
2019-01-11T22:49:06.955Z,9.51
2019-01-11T22:51:36.484Z,9.40
2019-01-11T22:54:10.335Z,9.64
2019-01-11T22:56:37.336Z,9.70
2019-01-11T22:59:06.935Z,9.58
2019-01-11T23:01:53.500Z,9.66
2019-01-11T23:04:23.150Z,9.61
2019-01-11T23:07:02.477Z,9.52
2019-01-11T23:09:38.134Z,9.54
2019-01-11T23:12:28.281Z,9.45
2019-01-11T23:14:57.835Z,9.21
2019-01-11T23:17:56.422Z,9.26
2019-01-11T23:20:26.015Z,9.46
2019-01-11T23:22:55.543Z,9.63
2019-01-11T23:25:25.022Z,9.68
2019-01-11T23:27:54.523Z,9.80
2019-01-11T23:30:24.071Z,9.65
2019-01-11T23:32:53.545Z,9.57
2019-01-11T23:35:23.016Z,9.69
2019-01-11T23:37:52.513Z,9.75
2019-01-11T23:40:22.000Z,9.71
2019-01-11T23:42:51.504Z,9.71
2019-01-11T23:45:20.984Z,9.59
2019-01-11T23:47:50.466Z,9.61
2019-01-11T23:50:19.949Z,9.74
2019-01-11T23:52:49.442Z,9.54
2019-01-11T23:55:18.917Z,9.56
2019-01-11T23:57:48.427Z,9.46
